sim
Sign-in with your pilot id or email,
or register
Callsign
Passwort

Schedule Details

Flight Number: EWG1835 (2)
Departure: Amsterdam Schiphol Airport (EHAM) at 20:35
Arrival: Munich Airport (EDDM) at 22:00
Route: Eurowings Passenger Schedule. Enter filed route here before submitting Pirep.

Weather Information
Getting current METAR information for EHAM 211155Z 06003KT 010V140 CAVOK 23/09 Q1016 NOSIG
Getting current METAR information for EDDM 211150Z 04004KT 330V110 CAVOK 22/13 Q1016 NOSIG

Schedule Frequency

Route Map